sensor_id;sensor_type;location;lat;lon;timestamp;temperature;humidity
7360;DHT22;3720;48.274;7.796;2024-02-23T00:02:31;8.00;99.90
7360;DHT22;3720;48.274;7.796;2024-02-23T00:05:03;8.00;99.90
7360;DHT22;3720;48.274;7.796;2024-02-23T00:07:35;8.00;99.90
7360;DHT22;3720;48.274;7.796;2024-02-23T00:10:08;8.00;99.90
7360;DHT22;3720;48.274;7.796;2024-02-23T00:12:39;8.00;99.90
7360;DHT22;3720;48.274;7.796;2024-02-23T00:15:11;8.00;99.90
7360;DHT22;3720;48.274;7.796;2024-02-23T00:17:44;8.00;99.90
7360;DHT22;3720;48.274;7.796;2024-02-23T00:20:16;8.00;99.90
7360;DHT22;3720;48.274;7.796;2024-02-23T00:22:48;8.00;99.90
7360;DHT22;3720;48.274;7.796;2024-02-23T00:25:20;8.00;99.90
7360;DHT22;3720;48.274;7.796;2024-02-23T00:27:53;8.00;99.90
7360;DHT22;3720;48.274;7.796;2024-02-23T00:30:25;8.10;99.90
7360;DHT22;3720;48.274;7.796;2024-02-23T00:32:59;8.10;99.90
7360;DHT22;3720;48.274;7.796;2024-02-23T00:35:31;8.10;99.90
7360;DHT22;3720;48.274;7.796;2024-02-23T00:38:03;8.10;99.90
7360;DHT22;3720;48.274;7.796;2024-02-23T00:40:35;8.10;99.90
7360;DHT22;3720;48.274;7.796;2024-02-23T00:43:07;8.10;99.90
7360;DHT22;3720;48.274;7.796;2024-02-23T00:45:38;8.10;99.90
7360;DHT22;3720;48.274;7.796;2024-02-23T00:48:12;8.10;99.90
7360;DHT22;3720;48.274;7.796;2024-02-23T00:50:44;8.10;99.90
7360;DHT22;3720;48.274;7.796;2024-02-23T00:53:16;8.10;99.90
7360;DHT22;3720;48.274;7.796;2024-02-23T00:55:48;8.10;99.90
7360;DHT22;3720;48.274;7.796;2024-02-23T00:58:20;8.10;99.90
7360;DHT22;3720;48.274;7.796;2024-02-23T01:00:51;8.10;99.90
7360;DHT22;3720;48.274;7.796;2024-02-23T01:03:25;8.10;99.90
7360;DHT22;3720;48.274;7.796;2024-02-23T01:05:56;8.10;99.90
7360;DHT22;3720;48.274;7.796;2024-02-23T01:08:28;8.10;99.90
7360;DHT22;3720;48.274;7.796;2024-02-23T01:11:00;8.10;99.90
7360;DHT22;3720;48.274;7.796;2024-02-23T01:13:32;8.00;99.90
7360;DHT22;3720;48.274;7.796;2024-02-23T01:16:04;8.00;99.90
7360;DHT22;3720;48.274;7.796;2024-02-23T01:18:38;8.00;99.90
7360;DHT22;3720;48.274;7.796;2024-02-23T01:21:09;8.00;99.90
7360;DHT22;3720;48.274;7.796;2024-02-23T01:23:41;8.00;99.90
7360;DHT22;3720;48.274;7.796;2024-02-23T01:26:13;7.90;99.90
7360;DHT22;3720;48.274;7.796;2024-02-23T01:28:45;7.90;99.90
7360;DHT22;3720;48.274;7.796;2024-02-23T01:31:17;7.80;99.90
7360;DHT22;3720;48.274;7.796;2024-02-23T01:33:50;7.80;99.90
7360;DHT22;3720;48.274;7.796;2024-02-23T01:36:22;7.80;99.90
7360;DHT22;3720;48.274;7.796;2024-02-23T01:38:53;7.80;99.90
7360;DHT22;3720;48.274;7.796;2024-02-23T01:41:25;7.80;99.90
7360;DHT22;3720;48.274;7.796;2024-02-23T01:43:57;7.80;99.90
7360;DHT22;3720;48.274;7.796;2024-02-23T01:46:29;7.70;99.90
7360;DHT22;3720;48.274;7.796;2024-02-23T01:49:03;7.70;99.90
7360;DHT22;3720;48.274;7.796;2024-02-23T01:51:36;7.80;99.90
7360;DHT22;3720;48.274;7.796;2024-02-23T01:54:08;7.80;99.90
7360;DHT22;3720;48.274;7.796;2024-02-23T01:56:41;7.70;99.90
7360;DHT22;3720;48.274;7.796;2024-02-23T01:59:13;7.60;99.90
7360;DHT22;3720;48.274;7.796;2024-02-23T02:01:45;7.60;99.90
7360;DHT22;3720;48.274;7.796;2024-02-23T02:04:19;7.60;99.90
7360;DHT22;3720;48.274;7.796;2024-02-23T02:06:51;7.60;99.90
7360;DHT22;3720;48.274;7.796;2024-02-23T02:09:23;7.50;99.90
7360;DHT22;3720;48.274;7.796;2024-02-23T02:11:55;7.50;99.90
7360;DHT22;3720;48.274;7.796;2024-02-23T02:14:27;7.40;99.90
7360;DHT22;3720;48.274;7.796;2024-02-23T02:17:01;7.30;99.90
7360;DHT22;3720;48.274;7.796;2024-02-23T02:19:35;7.10;99.90
7360;DHT22;3720;48.274;7.796;2024-02-23T02:22:06;7.00;99.90
7360;DHT22;3720;48.274;7.796;2024-02-23T02:24:38;7.00;99.90
7360;DHT22;3720;48.274;7.796;2024-02-23T02:27:13;7.00;99.90
7360;DHT22;3720;48.274;7.796;2024-02-23T02:29:44;7.00;99.90
7360;DHT22;3720;48.274;7.796;2024-02-23T02:32:16;7.10;99.90
7360;DHT22;3720;48.274;7.796;2024-02-23T02:34:50;7.10;99.90
7360;DHT22;3720;48.274;7.796;2024-02-23T02:37:22;7.10;99.90
7360;DHT22;3720;48.274;7.796;2024-02-23T02:39:54;7.10;99.90
7360;DHT22;3720;48.274;7.796;2024-02-23T02:42:25;7.00;99.90
7360;DHT22;3720;48.274;7.796;2024-02-23T02:44:59;7.00;99.90
7360;DHT22;3720;48.274;7.796;2024-02-23T02:47:31;7.00;99.90
7360;DHT22;3720;48.274;7.796;2024-02-23T02:50:05;6.90;99.90
7360;DHT22;3720;48.274;7.796;2024-02-23T02:52:37;6.90;99.90
7360;DHT22;3720;48.274;7.796;2024-02-23T02:55:09;6.80;99.90
7360;DHT22;3720;48.274;7.796;2024-02-23T02:57:41;6.80;99.90
7360;DHT22;3720;48.274;7.796;2024-02-23T03:00:13;6.80;99.90
7360;DHT22;3720;48.274;7.796;2024-02-23T03:02:45;6.70;99.90
7360;DHT22;3720;48.274;7.796;2024-02-23T03:05:18;6.70;99.90
7360;DHT22;3720;48.274;7.796;2024-02-23T03:07:50;6.70;99.90
7360;DHT22;3720;48.274;7.796;2024-02-23T03:10:22;6.70;99.90
7360;DHT22;3720;48.274;7.796;2024-02-23T03:12:53;6.70;99.90
7360;DHT22;3720;48.274;7.796;2024-02-23T03:15:25;6.60;99.90
7360;DHT22;3720;48.274;7.796;2024-02-23T03:17:58;6.60;99.90
7360;DHT22;3720;48.274;7.796;2024-02-23T03:20:33;6.60;99.90
7360;DHT22;3720;48.274;7.796;2024-02-23T03:23:04;6.50;99.90
7360;DHT22;3720;48.274;7.796;2024-02-23T03:25:36;6.50;99.90
7360;DHT22;3720;48.274;7.796;2024-02-23T03:28:08;6.50;99.90
7360;DHT22;3720;48.274;7.796;2024-02-23T03:30:40;6.50;99.90
7360;DHT22;3720;48.274;7.796;2024-02-23T03:33:11;6.40;99.90
7360;DHT22;3720;48.274;7.796;2024-02-23T03:35:45;6.50;99.90
7360;DHT22;3720;48.274;7.796;2024-02-23T03:38:16;6.50;99.90
7360;DHT22;3720;48.274;7.796;2024-02-23T03:40:48;6.40;99.90
7360;DHT22;3720;48.274;7.796;2024-02-23T03:43:20;6.40;99.90
7360;DHT22;3720;48.274;7.796;2024-02-23T03:45:52;6.40;99.90
7360;DHT22;3720;48.274;7.796;2024-02-23T03:48:24;6.40;99.90
7360;DHT22;3720;48.274;7.796;2024-02-23T03:50:57;6.40;99.90
7360;DHT22;3720;48.274;7.796;2024-02-23T03:53:29;6.40;99.90
7360;DHT22;3720;48.274;7.796;2024-02-23T03:56:00;6.40;99.90
7360;DHT22;3720;48.274;7.796;2024-02-23T03:58:32;6.40;99.90
7360;DHT22;3720;48.274;7.796;2024-02-23T04:01:04;6.40;99.90
7360;DHT22;3720;48.274;7.796;2024-02-23T04:03:36;6.40;99.90
7360;DHT22;3720;48.274;7.796;2024-02-23T04:06:09;6.40;99.90
7360;DHT22;3720;48.274;7.796;2024-02-23T04:08:41;6.40;99.90
7360;DHT22;3720;48.274;7.796;2024-02-23T04:11:13;6.40;99.90
7360;DHT22;3720;48.274;7.796;2024-02-23T04:13:45;6.40;99.90
7360;DHT22;3720;48.274;7.796;2024-02-23T04:16:17;6.30;99.90
7360;DHT22;3720;48.274;7.796;2024-02-23T04:18:48;6.30;99.90
7360;DHT22;3720;48.274;7.796;2024-02-23T04:21:22;6.40;99.90
7360;DHT22;3720;48.274;7.796;2024-02-23T04:23:53;6.30;99.90
7360;DHT22;3720;48.274;7.796;2024-02-23T04:26:25;6.30;99.90
7360;DHT22;3720;48.274;7.796;2024-02-23T04:28:57;6.30;99.90
7360;DHT22;3720;48.274;7.796;2024-02-23T04:31:29;6.30;99.90
7360;DHT22;3720;48.274;7.796;2024-02-23T04:34:01;6.30;99.90
7360;DHT22;3720;48.274;7.796;2024-02-23T04:36:34;6.30;99.90
7360;DHT22;3720;48.274;7.796;2024-02-23T04:39:06;6.30;99.90
7360;DHT22;3720;48.274;7.796;2024-02-23T04:41:37;6.30;99.90
7360;DHT22;3720;48.274;7.796;2024-02-23T04:44:09;6.30;99.90
7360;DHT22;3720;48.274;7.796;2024-02-23T04:46:41;6.30;99.90
7360;DHT22;3720;48.274;7.796;2024-02-23T04:49:13;6.30;99.90
7360;DHT22;3720;48.274;7.796;2024-02-23T04:51:46;6.40;99.90
7360;DHT22;3720;48.274;7.796;2024-02-23T04:54:18;6.40;99.90
7360;DHT22;3720;48.274;7.796;2024-02-23T04:56:50;6.30;99.90
7360;DHT22;3720;48.274;7.796;2024-02-23T04:59:22;6.30;99.90
7360;DHT22;3720;48.274;7.796;2024-02-23T05:01:53;6.30;99.90
7360;DHT22;3720;48.274;7.796;2024-02-23T05:04:25;6.30;99.90
7360;DHT22;3720;48.274;7.796;2024-02-23T05:07:00;6.30;99.90
7360;DHT22;3720;48.274;7.796;2024-02-23T05:09:32;6.30;99.90
7360;DHT22;3720;48.274;7.796;2024-02-23T05:12:06;6.20;99.90
7360;DHT22;3720;48.274;7.796;2024-02-23T05:14:38;6.30;99.90
7360;DHT22;3720;48.274;7.796;2024-02-23T05:17:10;6.20;99.90
7360;DHT22;3720;48.274;7.796;2024-02-23T05:19:41;6.30;99.90
7360;DHT22;3720;48.274;7.796;2024-02-23T05:22:15;6.20;99.90
7360;DHT22;3720;48.274;7.796;2024-02-23T05:24:46;6.20;99.90
7360;DHT22;3720;48.274;7.796;2024-02-23T05:27:18;6.20;99.90
7360;DHT22;3720;48.274;7.796;2024-02-23T05:29:50;6.20;99.90
7360;DHT22;3720;48.274;7.796;2024-02-23T05:32:22;6.10;99.90
7360;DHT22;3720;48.274;7.796;2024-02-23T05:34:54;6.10;99.90
7360;DHT22;3720;48.274;7.796;2024-02-23T05:37:28;6.10;99.90
7360;DHT22;3720;48.274;7.796;2024-02-23T05:40:00;6.10;99.90
7360;DHT22;3720;48.274;7.796;2024-02-23T05:42:37;6.10;99.90
7360;DHT22;3720;48.274;7.796;2024-02-23T05:45:09;6.00;99.90
7360;DHT22;3720;48.274;7.796;2024-02-23T05:47:41;6.10;99.90
7360;DHT22;3720;48.274;7.796;2024-02-23T05:50:13;6.10;99.90
7360;DHT22;3720;48.274;7.796;2024-02-23T05:52:46;6.10;99.90
7360;DHT22;3720;48.274;7.796;2024-02-23T05:55:18;6.10;99.90
7360;DHT22;3720;48.274;7.796;2024-02-23T05:57:50;6.00;99.90
7360;DHT22;3720;48.274;7.796;2024-02-23T06:00:22;6.00;99.90
7360;DHT22;3720;48.274;7.796;2024-02-23T06:02:54;6.00;99.90
7360;DHT22;3720;48.274;7.796;2024-02-23T06:05:26;5.90;99.90
7360;DHT22;3720;48.274;7.796;2024-02-23T06:07:59;5.90;99.90
7360;DHT22;3720;48.274;7.796;2024-02-23T06:10:31;5.90;99.90
7360;DHT22;3720;48.274;7.796;2024-02-23T06:13:04;5.90;99.90
7360;DHT22;3720;48.274;7.796;2024-02-23T06:15:35;5.80;99.90
7360;DHT22;3720;48.274;7.796;2024-02-23T06:18:07;5.90;99.90
7360;DHT22;3720;48.274;7.796;2024-02-23T06:20:39;5.80;99.90
7360;DHT22;3720;48.274;7.796;2024-02-23T06:23:13;5.80;99.90
7360;DHT22;3720;48.274;7.796;2024-02-23T06:25:45;5.80;99.90
7360;DHT22;3720;48.274;7.796;2024-02-23T06:28:17;5.70;99.90
7360;DHT22;3720;48.274;7.796;2024-02-23T06:30:48;5.70;99.90
7360;DHT22;3720;48.274;7.796;2024-02-23T06:33:20;5.60;99.90
7360;DHT22;3720;48.274;7.796;2024-02-23T06:35:52;5.60;99.90
7360;DHT22;3720;48.274;7.796;2024-02-23T06:38:25;5.60;99.90
7360;DHT22;3720;48.274;7.796;2024-02-23T06:40:59;5.60;99.90
7360;DHT22;3720;48.274;7.796;2024-02-23T06:43:31;5.60;99.90
7360;DHT22;3720;48.274;7.796;2024-02-23T06:46:05;5.60;99.90
7360;DHT22;3720;48.274;7.796;2024-02-23T06:48:37;5.70;99.90
7360;DHT22;3720;48.274;7.796;2024-02-23T06:51:09;5.60;99.90
7360;DHT22;3720;48.274;7.796;2024-02-23T06:53:42;5.70;99.90
7360;DHT22;3720;48.274;7.796;2024-02-23T06:56:14;5.60;99.90
7360;DHT22;3720;48.274;7.796;2024-02-23T06:58:46;5.70;99.90
7360;DHT22;3720;48.274;7.796;2024-02-23T07:01:20;5.70;99.90
7360;DHT22;3720;48.274;7.796;2024-02-23T07:03:52;5.70;99.90
7360;DHT22;3720;48.274;7.796;2024-02-23T07:06:23;5.70;99.90
7360;DHT22;3720;48.274;7.796;2024-02-23T07:08:57;5.80;99.90
7360;DHT22;3720;48.274;7.796;2024-02-23T07:11:29;5.80;99.90
7360;DHT22;3720;48.274;7.796;2024-02-23T07:14:00;5.80;99.90
7360;DHT22;3720;48.274;7.796;2024-02-23T07:16:32;5.90;99.90
7360;DHT22;3720;48.274;7.796;2024-02-23T07:19:04;5.90;99.90
7360;DHT22;3720;48.274;7.796;2024-02-23T07:21:36;6.00;99.90
7360;DHT22;3720;48.274;7.796;2024-02-23T07:24:09;6.10;99.90
7360;DHT22;3720;48.274;7.796;2024-02-23T07:26:41;6.10;99.90
7360;DHT22;3720;48.274;7.796;2024-02-23T07:29:13;6.20;99.90
7360;DHT22;3720;48.274;7.796;2024-02-23T07:31:45;6.20;99.90
7360;DHT22;3720;48.274;7.796;2024-02-23T07:34:17;6.20;99.90
7360;DHT22;3720;48.274;7.796;2024-02-23T07:36:51;6.30;99.90
7360;DHT22;3720;48.274;7.796;2024-02-23T07:39:25;6.30;99.90
7360;DHT22;3720;48.274;7.796;2024-02-23T07:41:57;6.40;99.90
7360;DHT22;3720;48.274;7.796;2024-02-23T07:44:29;6.40;99.90
7360;DHT22;3720;48.274;7.796;2024-02-23T07:47:00;6.40;99.90
7360;DHT22;3720;48.274;7.796;2024-02-23T07:49:33;6.50;99.90
7360;DHT22;3720;48.274;7.796;2024-02-23T07:52:05;6.50;99.90
7360;DHT22;3720;48.274;7.796;2024-02-23T07:54:39;6.60;99.90
7360;DHT22;3720;48.274;7.796;2024-02-23T07:57:10;6.60;99.90
7360;DHT22;3720;48.274;7.796;2024-02-23T07:59:44;6.60;99.90
7360;DHT22;3720;48.274;7.796;2024-02-23T08:02:15;6.60;99.90
7360;DHT22;3720;48.274;7.796;2024-02-23T08:04:47;6.60;99.90
7360;DHT22;3720;48.274;7.796;2024-02-23T08:07:20;6.60;99.90
7360;DHT22;3720;48.274;7.796;2024-02-23T08:09:54;6.70;99.90
7360;DHT22;3720;48.274;7.796;2024-02-23T08:12:26;6.80;99.90
7360;DHT22;3720;48.274;7.796;2024-02-23T08:14:58;6.80;99.90
7360;DHT22;3720;48.274;7.796;2024-02-23T08:17:30;6.80;99.90
7360;DHT22;3720;48.274;7.796;2024-02-23T08:20:02;6.80;99.90
7360;DHT22;3720;48.274;7.796;2024-02-23T08:22:35;6.90;99.90
7360;DHT22;3720;48.274;7.796;2024-02-23T08:25:09;6.80;99.90
7360;DHT22;3720;48.274;7.796;2024-02-23T08:27:41;6.90;99.90
7360;DHT22;3720;48.274;7.796;2024-02-23T08:30:14;6.90;99.90
7360;DHT22;3720;48.274;7.796;2024-02-23T08:32:45;7.00;99.90
7360;DHT22;3720;48.274;7.796;2024-02-23T08:35:17;7.10;99.90
7360;DHT22;3720;48.274;7.796;2024-02-23T08:37:49;7.30;99.90
7360;DHT22;3720;48.274;7.796;2024-02-23T08:40:22;7.40;99.90
7360;DHT22;3720;48.274;7.796;2024-02-23T08:42:54;7.50;99.90
7360;DHT22;3720;48.274;7.796;2024-02-23T08:45:26;7.60;99.90
7360;DHT22;3720;48.274;7.796;2024-02-23T08:47:58;7.60;99.90
7360;DHT22;3720;48.274;7.796;2024-02-23T08:50:30;7.60;99.90
7360;DHT22;3720;48.274;7.796;2024-02-23T08:53:01;7.50;99.90
7360;DHT22;3720;48.274;7.796;2024-02-23T08:55:34;7.50;99.90
7360;DHT22;3720;48.274;7.796;2024-02-23T08:58:06;7.50;99.90
7360;DHT22;3720;48.274;7.796;2024-02-23T09:00:38;7.50;99.90
7360;DHT22;3720;48.274;7.796;2024-02-23T09:03:10;7.60;99.90
7360;DHT22;3720;48.274;7.796;2024-02-23T09:05:42;7.50;99.90
7360;DHT22;3720;48.274;7.796;2024-02-23T09:08:13;7.60;99.90
7360;DHT22;3720;48.274;7.796;2024-02-23T09:10:47;7.60;99.90
7360;DHT22;3720;48.274;7.796;2024-02-23T09:13:18;7.70;99.90
7360;DHT22;3720;48.274;7.796;2024-02-23T09:15:50;7.80;99.90
7360;DHT22;3720;48.274;7.796;2024-02-23T09:18:22;7.90;99.90
7360;DHT22;3720;48.274;7.796;2024-02-23T09:20:54;7.90;99.90
7360;DHT22;3720;48.274;7.796;2024-02-23T09:23:26;8.10;99.90
7360;DHT22;3720;48.274;7.796;2024-02-23T09:25:59;8.10;99.90
7360;DHT22;3720;48.274;7.796;2024-02-23T09:28:31;8.20;99.90
7360;DHT22;3720;48.274;7.796;2024-02-23T09:31:03;8.30;99.90
7360;DHT22;3720;48.274;7.796;2024-02-23T09:33:35;8.40;99.90
7360;DHT22;3720;48.274;7.796;2024-02-23T09:36:07;8.60;99.90
7360;DHT22;3720;48.274;7.796;2024-02-23T09:38:40;8.60;99.90
7360;DHT22;3720;48.274;7.796;2024-02-23T09:41:19;8.80;99.90
7360;DHT22;3720;48.274;7.796;2024-02-23T09:43:51;9.00;99.90
7360;DHT22;3720;48.274;7.796;2024-02-23T09:46:23;9.20;99.90
7360;DHT22;3720;48.274;7.796;2024-02-23T09:48:56;9.30;99.90
7360;DHT22;3720;48.274;7.796;2024-02-23T09:51:29;9.30;99.90
7360;DHT22;3720;48.274;7.796;2024-02-23T09:54:03;9.30;99.90
7360;DHT22;3720;48.274;7.796;2024-02-23T09:56:37;9.20;99.90
7360;DHT22;3720;48.274;7.796;2024-02-23T09:59:09;9.20;99.90
7360;DHT22;3720;48.274;7.796;2024-02-23T10:01:41;9.20;99.90
7360;DHT22;3720;48.274;7.796;2024-02-23T10:04:13;9.10;99.90
7360;DHT22;3720;48.274;7.796;2024-02-23T10:06:46;9.30;99.90
7360;DHT22;3720;48.274;7.796;2024-02-23T10:09:17;9.50;99.90
7360;DHT22;3720;48.274;7.796;2024-02-23T10:11:53;9.70;99.90
7360;DHT22;3720;48.274;7.796;2024-02-23T10:14:25;9.90;99.90
7360;DHT22;3720;48.274;7.796;2024-02-23T10:16:57;10.00;99.90
7360;DHT22;3720;48.274;7.796;2024-02-23T10:19:29;10.00;99.90
7360;DHT22;3720;48.274;7.796;2024-02-23T10:22:01;10.20;99.90
7360;DHT22;3720;48.274;7.796;2024-02-23T10:24:33;10.30;99.90
7360;DHT22;3720;48.274;7.796;2024-02-23T10:27:06;10.40;99.90
7360;DHT22;3720;48.274;7.796;2024-02-23T10:29:38;10.60;99.90
7360;DHT22;3720;48.274;7.796;2024-02-23T10:32:14;10.70;99.90
7360;DHT22;3720;48.274;7.796;2024-02-23T10:34:48;10.80;99.90
7360;DHT22;3720;48.274;7.796;2024-02-23T10:37:21;10.80;99.90
7360;DHT22;3720;48.274;7.796;2024-02-23T10:39:57;10.90;99.90
7360;DHT22;3720;48.274;7.796;2024-02-23T10:42:34;11.10;99.90
7360;DHT22;3720;48.274;7.796;2024-02-23T10:45:08;11.00;99.90
7360;DHT22;3720;48.274;7.796;2024-02-23T10:47:40;11.10;99.90
7360;DHT22;3720;48.274;7.796;2024-02-23T10:50:12;11.40;99.90
7360;DHT22;3720;48.274;7.796;2024-02-23T10:52:46;11.50;99.90
7360;DHT22;3720;48.274;7.796;2024-02-23T10:55:18;11.60;99.90
7360;DHT22;3720;48.274;7.796;2024-02-23T10:57:51;11.70;99.90
7360;DHT22;3720;48.274;7.796;2024-02-23T11:00:24;11.80;99.90
7360;DHT22;3720;48.274;7.796;2024-02-23T11:02:57;11.90;99.90
7360;DHT22;3720;48.274;7.796;2024-02-23T11:05:29;11.90;99.90
7360;DHT22;3720;48.274;7.796;2024-02-23T11:08:03;11.90;99.90
7360;DHT22;3720;48.274;7.796;2024-02-23T11:10:43;11.90;99.90
7360;DHT22;3720;48.274;7.796;2024-02-23T11:13:31;12.10;99.90
7360;DHT22;3720;48.274;7.796;2024-02-23T11:16:07;12.00;99.90
7360;DHT22;3720;48.274;7.796;2024-02-23T11:18:40;11.60;99.90
7360;DHT22;3720;48.274;7.796;2024-02-23T11:21:12;11.50;99.90
7360;DHT22;3720;48.274;7.796;2024-02-23T11:23:45;11.30;99.90
7360;DHT22;3720;48.274;7.796;2024-02-23T11:26:19;11.10;99.90
7360;DHT22;3720;48.274;7.796;2024-02-23T11:28:58;11.10;99.90
7360;DHT22;3720;48.274;7.796;2024-02-23T11:31:30;10.90;99.90
7360;DHT22;3720;48.274;7.796;2024-02-23T11:34:07;10.80;99.90
7360;DHT22;3720;48.274;7.796;2024-02-23T11:36:40;10.70;99.90
7360;DHT22;3720;48.274;7.796;2024-02-23T11:39:13;10.60;99.90
7360;DHT22;3720;48.274;7.796;2024-02-23T11:41:48;10.60;99.90
7360;DHT22;3720;48.274;7.796;2024-02-23T11:44:21;10.60;99.90
7360;DHT22;3720;48.274;7.796;2024-02-23T11:46:53;10.60;99.90
7360;DHT22;3720;48.274;7.796;2024-02-23T11:49:27;10.50;99.90
7360;DHT22;3720;48.274;7.796;2024-02-23T11:52:00;10.30;99.90
7360;DHT22;3720;48.274;7.796;2024-02-23T11:54:33;10.40;99.90
7360;DHT22;3720;48.274;7.796;2024-02-23T11:57:04;10.80;99.90
7360;DHT22;3720;48.274;7.796;2024-02-23T11:59:40;11.00;99.90
7360;DHT22;3720;48.274;7.796;2024-02-23T12:02:12;11.20;99.90
7360;DHT22;3720;48.274;7.796;2024-02-23T12:04:44;11.50;99.90
7360;DHT22;3720;48.274;7.796;2024-02-23T12:07:16;11.50;99.90
7360;DHT22;3720;48.274;7.796;2024-02-23T12:09:48;11.30;99.90
7360;DHT22;3720;48.274;7.796;2024-02-23T12:12:20;11.10;99.90
7360;DHT22;3720;48.274;7.796;2024-02-23T12:14:54;10.80;99.90
7360;DHT22;3720;48.274;7.796;2024-02-23T12:17:26;10.70;99.90
7360;DHT22;3720;48.274;7.796;2024-02-23T12:19:59;10.60;99.90
7360;DHT22;3720;48.274;7.796;2024-02-23T12:22:31;10.50;99.90
7360;DHT22;3720;48.274;7.796;2024-02-23T12:25:03;10.40;99.90
7360;DHT22;3720;48.274;7.796;2024-02-23T12:27:35;10.30;99.90
7360;DHT22;3720;48.274;7.796;2024-02-23T12:30:13;10.10;99.90
7360;DHT22;3720;48.274;7.796;2024-02-23T12:32:45;10.10;99.90
7360;DHT22;3720;48.274;7.796;2024-02-23T12:35:17;10.10;99.90
7360;DHT22;3720;48.274;7.796;2024-02-23T12:37:50;10.20;99.90
7360;DHT22;3720;48.274;7.796;2024-02-23T12:40:22;10.20;99.90
7360;DHT22;3720;48.274;7.796;2024-02-23T12:42:54;10.30;99.90
7360;DHT22;3720;48.274;7.796;2024-02-23T12:45:27;10.30;99.90
7360;DHT22;3720;48.274;7.796;2024-02-23T12:47:59;10.30;99.90
7360;DHT22;3720;48.274;7.796;2024-02-23T12:50:31;10.30;99.90
7360;DHT22;3720;48.274;7.796;2024-02-23T12:53:03;10.40;99.90
7360;DHT22;3720;48.274;7.796;2024-02-23T12:55:35;10.50;99.90
7360;DHT22;3720;48.274;7.796;2024-02-23T12:58:08;10.50;99.90
7360;DHT22;3720;48.274;7.796;2024-02-23T13:00:41;10.60;99.90
7360;DHT22;3720;48.274;7.796;2024-02-23T13:03:13;10.60;99.90
7360;DHT22;3720;48.274;7.796;2024-02-23T13:05:44;10.60;99.90
7360;DHT22;3720;48.274;7.796;2024-02-23T13:08:17;10.50;99.90
7360;DHT22;3720;48.274;7.796;2024-02-23T13:10:49;10.50;99.90
7360;DHT22;3720;48.274;7.796;2024-02-23T13:13:22;10.50;99.90
7360;DHT22;3720;48.274;7.796;2024-02-23T13:15:55;10.40;99.90
7360;DHT22;3720;48.274;7.796;2024-02-23T13:18:27;10.40;99.90
7360;DHT22;3720;48.274;7.796;2024-02-23T13:20:59;10.50;99.90
7360;DHT22;3720;48.274;7.796;2024-02-23T13:23:31;10.50;99.90
7360;DHT22;3720;48.274;7.796;2024-02-23T13:26:03;10.60;99.90
7360;DHT22;3720;48.274;7.796;2024-02-23T13:28:35;11.10;99.90
7360;DHT22;3720;48.274;7.796;2024-02-23T13:31:08;11.60;99.90
7360;DHT22;3720;48.274;7.796;2024-02-23T13:33:40;11.80;99.90
7360;DHT22;3720;48.274;7.796;2024-02-23T13:36:12;12.20;99.90
7360;DHT22;3720;48.274;7.796;2024-02-23T13:38:44;12.50;99.90
7360;DHT22;3720;48.274;7.796;2024-02-23T13:41:15;12.90;99.90
7360;DHT22;3720;48.274;7.796;2024-02-23T13:43:47;13.30;99.90
7360;DHT22;3720;48.274;7.796;2024-02-23T13:46:20;13.90;99.90
7360;DHT22;3720;48.274;7.796;2024-02-23T13:49:02;14.30;99.90
7360;DHT22;3720;48.274;7.796;2024-02-23T13:51:35;14.60;99.90
7360;DHT22;3720;48.274;7.796;2024-02-23T13:54:07;14.40;99.90
7360;DHT22;3720;48.274;7.796;2024-02-23T13:56:38;14.30;99.90
7360;DHT22;3720;48.274;7.796;2024-02-23T13:59:10;14.10;99.90
7360;DHT22;3720;48.274;7.796;2024-02-23T14:01:43;14.20;99.90
7360;DHT22;3720;48.274;7.796;2024-02-23T14:04:17;13.90;99.90
7360;DHT22;3720;48.274;7.796;2024-02-23T14:06:48;13.60;99.90
7360;DHT22;3720;48.274;7.796;2024-02-23T14:09:20;13.30;99.90
7360;DHT22;3720;48.274;7.796;2024-02-23T14:11:52;13.30;99.90
7360;DHT22;3720;48.274;7.796;2024-02-23T14:14:24;13.30;99.90
7360;DHT22;3720;48.274;7.796;2024-02-23T14:16:58;13.30;99.90
7360;DHT22;3720;48.274;7.796;2024-02-23T14:19:29;13.20;99.90
7360;DHT22;3720;48.274;7.796;2024-02-23T14:22:01;13.40;99.90
7360;DHT22;3720;48.274;7.796;2024-02-23T14:24:33;13.60;99.90
7360;DHT22;3720;48.274;7.796;2024-02-23T14:27:05;13.80;99.90
7360;DHT22;3720;48.274;7.796;2024-02-23T14:29:37;13.80;99.90
7360;DHT22;3720;48.274;7.796;2024-02-23T14:32:15;13.80;99.90
7360;DHT22;3720;48.274;7.796;2024-02-23T14:34:48;13.90;99.90
7360;DHT22;3720;48.274;7.796;2024-02-23T14:37:20;14.00;99.90
7360;DHT22;3720;48.274;7.796;2024-02-23T14:39:52;14.10;99.90
7360;DHT22;3720;48.274;7.796;2024-02-23T14:42:23;14.10;99.90
7360;DHT22;3720;48.274;7.796;2024-02-23T14:44:55;14.10;99.90
7360;DHT22;3720;48.274;7.796;2024-02-23T14:47:29;13.90;99.90
7360;DHT22;3720;48.274;7.796;2024-02-23T14:50:00;13.90;99.90
7360;DHT22;3720;48.274;7.796;2024-02-23T14:52:32;13.70;99.90
7360;DHT22;3720;48.274;7.796;2024-02-23T14:55:04;13.40;99.90
7360;DHT22;3720;48.274;7.796;2024-02-23T14:57:36;13.40;99.90
7360;DHT22;3720;48.274;7.796;2024-02-23T15:00:09;13.50;99.90
7360;DHT22;3720;48.274;7.796;2024-02-23T15:02:42;13.50;99.90
7360;DHT22;3720;48.274;7.796;2024-02-23T15:05:15;13.40;99.90
7360;DHT22;3720;48.274;7.796;2024-02-23T15:07:48;13.30;99.90
7360;DHT22;3720;48.274;7.796;2024-02-23T15:10:20;13.30;99.90
7360;DHT22;3720;48.274;7.796;2024-02-23T15:12:52;13.00;99.90
7360;DHT22;3720;48.274;7.796;2024-02-23T15:15:23;12.90;99.90
7360;DHT22;3720;48.274;7.796;2024-02-23T15:17:56;12.80;99.90
7360;DHT22;3720;48.274;7.796;2024-02-23T15:20:28;12.80;99.90
7360;DHT22;3720;48.274;7.796;2024-02-23T15:23:00;12.70;99.90
7360;DHT22;3720;48.274;7.796;2024-02-23T15:25:32;12.60;99.90
7360;DHT22;3720;48.274;7.796;2024-02-23T15:28:05;12.50;99.90
7360;DHT22;3720;48.274;7.796;2024-02-23T15:30:37;12.40;99.90
7360;DHT22;3720;48.274;7.796;2024-02-23T15:33:10;12.30;99.90
7360;DHT22;3720;48.274;7.796;2024-02-23T15:35:44;12.30;99.90
7360;DHT22;3720;48.274;7.796;2024-02-23T15:38:16;12.20;99.90
7360;DHT22;3720;48.274;7.796;2024-02-23T15:40:48;12.10;99.90
7360;DHT22;3720;48.274;7.796;2024-02-23T15:43:20;12.10;99.90
7360;DHT22;3720;48.274;7.796;2024-02-23T15:45:52;12.00;99.90
7360;DHT22;3720;48.274;7.796;2024-02-23T15:48:26;12.10;99.90
7360;DHT22;3720;48.274;7.796;2024-02-23T15:50:58;12.30;99.90
7360;DHT22;3720;48.274;7.796;2024-02-23T15:53:30;12.40;99.90
7360;DHT22;3720;48.274;7.796;2024-02-23T15:56:02;12.50;99.90
7360;DHT22;3720;48.274;7.796;2024-02-23T15:58:33;12.40;99.90
7360;DHT22;3720;48.274;7.796;2024-02-23T16:01:05;12.40;99.90
7360;DHT22;3720;48.274;7.796;2024-02-23T16:03:38;12.30;99.90
7360;DHT22;3720;48.274;7.796;2024-02-23T16:06:10;12.10;99.90
7360;DHT22;3720;48.274;7.796;2024-02-23T16:08:44;11.90;99.90
7360;DHT22;3720;48.274;7.796;2024-02-23T16:11:16;11.70;99.90
7360;DHT22;3720;48.274;7.796;2024-02-23T16:13:48;11.60;99.90
7360;DHT22;3720;48.274;7.796;2024-02-23T16:16:20;11.50;99.90
7360;DHT22;3720;48.274;7.796;2024-02-23T16:18:53;11.40;99.90
7360;DHT22;3720;48.274;7.796;2024-02-23T16:21:25;11.30;99.90
7360;DHT22;3720;48.274;7.796;2024-02-23T16:23:56;11.10;99.90
7360;DHT22;3720;48.274;7.796;2024-02-23T16:26:28;11.10;99.90
7360;DHT22;3720;48.274;7.796;2024-02-23T16:29:06;11.10;99.90
7360;DHT22;3720;48.274;7.796;2024-02-23T16:31:38;11.00;99.90
7360;DHT22;3720;48.274;7.796;2024-02-23T16:34:11;10.90;99.90
7360;DHT22;3720;48.274;7.796;2024-02-23T16:36:43;10.90;99.90
7360;DHT22;3720;48.274;7.796;2024-02-23T16:39:15;10.90;99.90
7360;DHT22;3720;48.274;7.796;2024-02-23T16:41:47;10.80;99.90
7360;DHT22;3720;48.274;7.796;2024-02-23T16:44:18;10.80;99.90
7360;DHT22;3720;48.274;7.796;2024-02-23T16:46:51;10.70;99.90